createdAt,value
2022-11-02T08:11:58.762Z,10.04
2022-11-02T08:12:28.714Z,10.06
2022-11-02T08:12:59.751Z,10.07
2022-11-02T08:13:32.751Z,10.07
2022-11-02T08:14:01.408Z,10.07
2022-11-02T08:14:32.440Z,10.07
2022-11-02T08:15:07.429Z,10.09
2022-11-02T08:15:33.537Z,10.09
2022-11-02T08:16:04.568Z,10.09
2022-11-02T08:16:35.104Z,10.10
2022-11-02T08:17:05.626Z,10.10
2022-11-02T08:17:36.673Z,10.14
2022-11-02T08:18:07.730Z,10.14
2022-11-02T08:18:37.978Z,10.13
2022-11-02T08:19:08.500Z,10.14
2022-11-02T08:19:39.033Z,10.16
2022-11-02T08:20:09.556Z,10.18
2022-11-02T08:20:40.093Z,10.18
2022-11-02T08:21:11.088Z,10.20
2022-11-02T08:21:41.637Z,10.22
2022-11-02T08:22:12.650Z,10.20
2022-11-02T08:22:43.191Z,10.22
2022-11-02T08:23:14.204Z,10.24
2022-11-02T08:23:44.725Z,10.25
2022-11-02T08:24:15.724Z,10.25
2022-11-02T08:24:46.764Z,10.25
2022-11-02T08:25:17.291Z,10.28
2022-11-02T08:25:47.798Z,10.29
2022-11-02T08:26:18.844Z,10.29
2022-11-02T08:26:53.856Z,10.34
2022-11-02T08:27:20.625Z,10.34
2022-11-02T08:27:51.130Z,10.36
2022-11-02T08:28:22.158Z,10.36
2022-11-02T08:28:53.161Z,10.38
2022-11-02T08:29:24.177Z,10.43
2022-11-02T08:29:54.691Z,10.46
2022-11-02T08:30:26.044Z,10.44
2022-11-02T08:30:56.550Z,10.46
2022-11-02T08:31:27.568Z,10.46
2022-11-02T08:31:58.625Z,10.44
2022-11-02T08:32:29.134Z,10.47
2022-11-02T08:33:00.141Z,10.47
2022-11-02T08:33:31.155Z,10.51
2022-11-02T08:34:02.188Z,10.51
2022-11-02T08:34:33.202Z,10.51
2022-11-02T08:35:04.206Z,10.52
2022-11-02T08:35:35.253Z,10.52
2022-11-02T08:36:05.919Z,10.55
2022-11-02T08:36:36.452Z,10.55
2022-11-02T08:37:06.974Z,10.55
2022-11-02T08:37:37.991Z,10.55
2022-11-02T08:38:09.019Z,10.55
2022-11-02T08:38:39.534Z,10.58
2022-11-02T08:39:14.647Z,10.60
2022-11-02T08:39:41.309Z,10.60
2022-11-02T08:40:11.821Z,10.62
2022-11-02T08:40:42.848Z,10.65
2022-11-02T08:41:13.374Z,10.65
2022-11-02T08:41:43.893Z,10.66
2022-11-02T08:42:14.918Z,10.65
2022-11-02T08:42:45.461Z,10.66
2022-11-02T08:43:15.979Z,10.68
2022-11-02T08:43:46.988Z,10.68
2022-11-02T08:44:18.078Z,10.68
2022-11-02T08:44:48.549Z,10.70
2022-11-02T08:45:19.581Z,10.72
2022-11-02T08:46:20.856Z,10.75
2022-11-02T08:46:51.877Z,10.76
2022-11-02T08:47:22.885Z,10.75
2022-11-02T08:47:53.410Z,10.78
2022-11-02T08:48:24.451Z,10.80
2022-11-02T08:48:54.977Z,10.81
2022-11-02T08:49:25.998Z,10.83
2022-11-02T08:49:57.026Z,10.83
2022-11-02T08:50:27.551Z,10.84
2022-11-02T08:50:58.077Z,10.86
2022-11-02T08:51:28.658Z,10.87
2022-11-02T08:51:59.161Z,10.87
2022-11-02T08:52:30.179Z,10.90
2022-11-02T08:53:01.215Z,10.90
2022-11-02T08:53:32.260Z,10.93
2022-11-02T08:54:02.797Z,10.93
2022-11-02T08:54:33.831Z,10.94
2022-11-02T08:55:04.889Z,10.93
2022-11-02T08:55:35.378Z,10.94
2022-11-02T08:56:06.399Z,10.95
2022-11-02T08:56:36.935Z,10.95
2022-11-02T08:57:07.482Z,10.95
2022-11-02T08:57:37.999Z,10.99
2022-11-02T08:58:08.558Z,11.01
2022-11-02T08:58:39.073Z,11.02
2022-11-02T08:59:09.594Z,11.02
2022-11-02T08:59:40.618Z,11.03
2022-11-02T09:00:11.156Z,11.05
2022-11-02T09:00:42.162Z,11.06
2022-11-02T09:01:13.284Z,11.06
2022-11-02T09:01:43.919Z,11.06
2022-11-02T09:02:14.712Z,11.08
2022-11-02T09:02:45.344Z,11.11
2022-11-02T09:03:15.855Z,11.09
2022-11-02T09:03:46.878Z,11.13
2022-11-02T09:04:17.396Z,11.16
2022-11-02T09:04:47.911Z,11.16
2022-11-02T09:05:18.436Z,11.19
2022-11-02T09:05:48.968Z,11.19
2022-11-02T09:06:19.992Z,11.20
2022-11-02T09:06:50.519Z,11.21
2022-11-02T09:07:21.550Z,11.21
2022-11-02T09:07:52.563Z,11.24
2022-11-02T09:08:57.872Z,11.24
2022-11-02T09:09:25.314Z,11.24
2022-11-02T09:09:56.361Z,11.26
2022-11-02T09:10:26.882Z,11.27
2022-11-02T09:10:57.899Z,11.26
2022-11-02T09:11:28.427Z,11.27
2022-11-02T09:11:58.960Z,11.28
2022-11-02T09:12:29.488Z,11.30
2022-11-02T09:13:00.019Z,11.31
2022-11-02T09:13:31.220Z,11.36
2022-11-02T09:14:01.857Z,11.35
2022-11-02T09:14:32.347Z,11.38
2022-11-02T09:15:02.872Z,11.39
2022-11-02T09:15:34.049Z,11.38
2022-11-02T09:16:04.531Z,11.38
2022-11-02T09:16:41.075Z,11.39
2022-11-02T09:17:06.259Z,11.39
2022-11-02T09:17:36.784Z,11.39
2022-11-02T09:18:07.667Z,11.39
2022-11-02T09:18:37.859Z,11.41
2022-11-02T09:19:08.390Z,11.42
2022-11-02T09:19:38.904Z,11.42
2022-11-02T09:20:09.909Z,11.42
2022-11-02T09:20:40.932Z,11.44
2022-11-02T09:21:11.436Z,11.44
2022-11-02T09:21:42.470Z,11.44
2022-11-02T09:22:13.466Z,11.44
2022-11-02T09:22:44.000Z,11.45
2022-11-02T09:23:15.010Z,11.44
2022-11-02T09:23:46.035Z,11.45
2022-11-02T09:24:16.572Z,11.46
2022-11-02T09:24:47.127Z,11.44
2022-11-02T09:25:17.661Z,11.46
2022-11-02T09:25:48.180Z,11.46
2022-11-02T09:26:18.695Z,11.46
2022-11-02T09:26:49.732Z,11.45
2022-11-02T09:27:20.744Z,11.46
2022-11-02T09:27:55.427Z,11.48
2022-11-02T09:28:22.632Z,11.49
2022-11-02T09:28:53.193Z,11.49
2022-11-02T09:29:55.222Z,11.51
2022-11-02T09:30:26.247Z,11.51
2022-11-02T09:30:56.780Z,11.51
2022-11-02T09:31:27.807Z,11.54
2022-11-02T09:31:58.832Z,11.54
2022-11-02T09:32:29.864Z,11.56
2022-11-02T09:33:00.900Z,11.57
2022-11-02T09:33:31.905Z,11.57
2022-11-02T09:34:02.941Z,11.59
2022-11-02T09:34:33.465Z,11.59
2022-11-02T09:35:04.500Z,11.62
2022-11-02T09:35:35.010Z,11.62
2022-11-02T09:36:06.016Z,11.62
2022-11-02T09:36:36.556Z,11.62
2022-11-02T09:37:07.076Z,11.64
2022-11-02T09:37:37.594Z,11.66
2022-11-02T09:38:08.131Z,11.69
2022-11-02T09:38:39.163Z,11.70
2022-11-02T09:39:10.183Z,11.70
2022-11-02T09:39:41.183Z,11.72
2022-11-02T09:40:12.193Z,11.72
2022-11-02T09:40:43.220Z,11.74
2022-11-02T09:41:14.284Z,11.72
2022-11-02T09:41:44.807Z,11.72
2022-11-02T09:42:15.820Z,11.77
2022-11-02T09:42:46.345Z,11.77
2022-11-02T09:43:17.368Z,11.75
2022-11-02T09:43:48.384Z,11.78
2022-11-02T09:44:19.436Z,11.77
2022-11-02T09:44:50.451Z,11.77
2022-11-02T09:45:21.478Z,11.78
2022-11-02T09:45:52.520Z,11.79
2022-11-02T09:46:23.034Z,11.81
2022-11-02T09:47:39.674Z,11.81
2022-11-02T09:48:15.767Z,11.84
2022-11-02T09:48:28.614Z,11.85
2022-11-02T09:48:56.792Z,11.85
2022-11-02T09:49:27.318Z,11.85
2022-11-02T09:49:57.832Z,11.90
2022-11-02T09:50:28.859Z,11.94
2022-11-02T09:51:02.091Z,11.96
2022-11-02T09:51:30.393Z,11.94
2022-11-02T09:52:01.422Z,11.96
2022-11-02T09:52:31.948Z,11.94
2022-11-02T09:53:03.356Z,11.94
2022-11-02T09:53:33.550Z,11.96
2022-11-02T09:54:04.579Z,11.96
2022-11-02T09:54:35.581Z,11.98
2022-11-02T09:55:06.117Z,12.00
2022-11-02T09:55:37.221Z,12.01
2022-11-02T09:56:07.789Z,12.01
2022-11-02T09:56:38.788Z,12.03
2022-11-02T09:57:09.807Z,12.03
2022-11-02T09:57:40.810Z,12.03
2022-11-02T09:58:11.823Z,12.03
2022-11-02T09:58:42.371Z,12.04
2022-11-02T09:59:12.888Z,12.04
2022-11-02T09:59:43.435Z,12.05
2022-11-02T10:00:13.937Z,12.05
2022-11-02T10:00:44.448Z,12.07
2022-11-02T10:01:15.024Z,12.08
2022-11-02T10:01:45.631Z,12.07
2022-11-02T10:02:16.208Z,12.08
2022-11-02T10:02:46.896Z,12.08
2022-11-02T10:03:17.423Z,12.11
2022-11-02T10:03:48.445Z,12.08
2022-11-02T10:04:19.441Z,12.11
2022-11-02T10:04:50.438Z,12.11
2022-11-02T10:05:21.466Z,12.11
2022-11-02T10:05:52.482Z,12.12
2022-11-02T10:06:23.539Z,12.11
2022-11-02T10:06:54.077Z,12.12
2022-11-02T10:07:24.592Z,12.12
2022-11-02T10:07:55.103Z,12.11
2022-11-02T10:08:25.639Z,12.11
2022-11-02T10:08:56.667Z,12.12
2022-11-02T10:09:27.703Z,12.12
2022-11-02T10:09:58.723Z,12.13
2022-11-02T10:10:29.747Z,12.13
2022-11-02T10:11:05.348Z,12.15
2022-11-02T10:11:31.540Z,12.15
2022-11-02T10:12:02.042Z,12.16
2022-11-02T10:12:33.061Z,12.13
2022-11-02T10:13:04.547Z,12.13
2022-11-02T10:13:34.728Z,12.12
2022-11-02T10:14:05.262Z,12.13
2022-11-02T10:14:36.259Z,12.13
2022-11-02T10:15:07.319Z,12.15
2022-11-02T10:15:38.322Z,12.12
2022-11-02T10:16:08.842Z,12.08
2022-11-02T10:16:39.422Z,12.12
2022-11-02T10:17:09.951Z,12.08
2022-11-02T10:17:40.459Z,12.12
2022-11-02T10:18:10.972Z,12.11
2022-11-02T10:18:41.964Z,12.15
2022-11-02T10:19:13.029Z,12.12
2022-11-02T10:19:44.037Z,12.13
2022-11-02T10:20:14.574Z,12.13
2022-11-02T10:20:45.606Z,12.13
2022-11-02T10:21:16.135Z,12.13
2022-11-02T10:21:47.201Z,12.13
2022-11-02T10:22:17.689Z,12.15
2022-11-02T10:22:48.731Z,12.16
2022-11-02T10:23:19.259Z,12.18
2022-11-02T10:23:50.280Z,12.22
2022-11-02T10:24:20.806Z,12.22
2022-11-02T10:24:51.337Z,12.19
2022-11-02T10:25:22.349Z,12.19
2022-11-02T10:25:52.876Z,12.19
2022-11-02T10:26:23.901Z,12.21
2022-11-02T10:26:54.942Z,12.19
2022-11-02T10:27:25.471Z,12.21
2022-11-02T10:27:56.035Z,12.21
2022-11-02T10:28:26.628Z,12.22
2022-11-02T10:28:57.175Z,12.21
2022-11-02T10:29:27.676Z,12.21
2022-11-02T10:29:58.712Z,12.22
2022-11-02T10:30:29.287Z,12.23
2022-11-02T10:30:59.767Z,12.25
2022-11-02T10:31:30.803Z,12.22
2022-11-02T10:32:01.334Z,12.23
2022-11-02T10:32:31.929Z,12.23
2022-11-02T10:33:02.765Z,12.22
2022-11-02T10:33:33.514Z,12.25
2022-11-02T10:34:04.525Z,12.25
2022-11-02T10:34:35.039Z,12.25
2022-11-02T10:35:17.978Z,12.26
2022-11-02T10:35:57.257Z,12.25
2022-11-02T10:36:22.410Z,12.26
2022-11-02T10:36:37.740Z,12.25
2022-11-02T10:37:08.266Z,12.29
2022-11-02T10:37:38.802Z,12.26
2022-11-02T10:38:14.775Z,12.25
2022-11-02T10:38:40.551Z,12.25
2022-11-02T10:39:11.573Z,12.25
2022-11-02T10:39:42.599Z,12.19
2022-11-02T10:40:13.137Z,12.19
2022-11-02T10:40:44.176Z,12.21
2022-11-02T10:41:14.695Z,12.19
2022-11-02T10:41:45.687Z,12.18
2022-11-02T10:42:16.212Z,12.18
2022-11-02T10:42:47.250Z,12.18
2022-11-02T10:43:18.269Z,12.16
2022-11-02T10:43:52.130Z,12.19
2022-11-02T10:44:20.219Z,12.18
2022-11-02T10:44:50.735Z,12.19
2022-11-02T10:45:21.761Z,12.19
2022-11-02T10:45:52.832Z,12.19
2022-11-02T10:46:23.318Z,12.18
2022-11-02T10:46:54.324Z,12.18
2022-11-02T10:47:24.855Z,12.18
2022-11-02T10:47:55.857Z,12.19
2022-11-02T10:48:26.860Z,12.18
2022-11-02T10:48:57.378Z,12.16
2022-11-02T10:49:28.371Z,12.16
2022-11-02T10:49:59.407Z,12.16
2022-11-02T10:50:30.404Z,12.15
2022-11-02T10:51:00.954Z,12.12
2022-11-02T10:51:31.466Z,12.13
2022-11-02T10:52:02.489Z,12.13
2022-11-02T10:52:33.065Z,12.15
2022-11-02T10:53:35.241Z,12.16
2022-11-02T10:53:41.265Z,12.16
2022-11-02T10:54:36.015Z,12.18
2022-11-02T10:55:06.561Z,12.18
2022-11-02T10:55:37.092Z,12.19
2022-11-02T10:56:07.614Z,12.19
2022-11-02T10:56:38.153Z,12.22
2022-11-02T10:57:08.673Z,12.23
2022-11-02T10:57:39.218Z,12.21
2022-11-02T10:58:09.738Z,12.19
2022-11-02T10:58:40.780Z,12.19
2022-11-02T10:59:11.304Z,12.19
